createdAt,value
2018-08-03T00:00:54.961Z,100666
2018-08-03T00:02:00.401Z,100672
2018-08-03T00:03:05.893Z,100675
2018-08-03T00:04:11.630Z,100672
2018-08-03T00:05:16.782Z,100657
2018-08-03T00:06:21.751Z,100653
2018-08-03T00:07:41.943Z,100663
2018-08-03T00:08:47.097Z,100657
2018-08-03T00:09:52.799Z,100660
2018-08-03T00:10:57.937Z,100663
2018-08-03T00:12:02.609Z,100666
2018-08-03T00:13:08.115Z,100660
2018-08-03T00:14:13.265Z,100660
2018-08-03T00:15:18.713Z,100663
2018-08-03T00:16:24.272Z,100657
2018-08-03T00:17:29.422Z,100660
2018-08-03T00:18:35.103Z,100669
2018-08-03T00:19:39.990Z,100663
2018-08-03T00:20:44.852Z,100660
2018-08-03T00:21:50.068Z,100666
2018-08-03T00:22:55.513Z,100660
2018-08-03T00:24:00.375Z,100663
2018-08-03T00:25:05.017Z,100653
2018-08-03T00:26:10.459Z,100663
2018-08-03T00:27:15.975Z,100666
2018-08-03T00:28:21.128Z,100660
2018-08-03T00:29:25.773Z,100663
2018-08-03T00:30:30.436Z,100657
2018-08-03T00:31:35.588Z,100655
2018-08-03T00:32:40.562Z,100650
2018-08-03T00:33:45.415Z,100669
2018-08-03T00:34:50.588Z,100653
2018-08-03T00:35:56.017Z,100655
2018-08-03T00:37:01.188Z,100657
2018-08-03T00:38:06.061Z,100657
2018-08-03T00:39:11.542Z,100655
2018-08-03T00:40:17.251Z,100666
2018-08-03T00:41:22.403Z,100653
2018-08-03T00:42:27.857Z,100657
2018-08-03T00:43:33.084Z,100655
2018-08-03T00:44:38.523Z,100660
2018-08-03T00:45:43.991Z,100666
2018-08-03T00:46:49.456Z,100657
2018-08-03T00:47:54.665Z,100653
2018-08-03T00:49:00.428Z,100660
2018-08-03T00:50:05.926Z,100660
2018-08-03T00:51:11.078Z,100663
2018-08-03T00:52:16.255Z,100660
2018-08-03T00:53:21.148Z,100660
2018-08-03T00:54:26.692Z,100666
2018-08-03T00:55:31.556Z,100657
2018-08-03T00:56:36.741Z,100660
2018-08-03T00:57:42.671Z,100666
2018-08-03T00:58:48.096Z,100672
2018-08-03T00:59:52.980Z,100663
2018-08-03T01:00:57.867Z,100669
2018-08-03T01:02:02.755Z,100663
2018-08-03T01:03:08.247Z,100675
2018-08-03T01:04:13.659Z,100678
2018-08-03T01:05:19.150Z,100657
2018-08-03T01:06:24.668Z,100666
2018-08-03T01:07:44.443Z,100675
2018-08-03T01:08:49.872Z,100663
2018-08-03T01:09:55.303Z,100669
2018-08-03T01:11:00.182Z,100666
2018-08-03T01:12:05.105Z,100672
2018-08-03T01:13:09.948Z,100666
2018-08-03T01:14:15.390Z,100660
2018-08-03T01:15:20.566Z,100660
2018-08-03T01:16:25.784Z,100663
2018-08-03T01:17:31.041Z,100663
2018-08-03T01:18:36.461Z,100657
2018-08-03T01:19:41.896Z,100660
2018-08-03T01:20:46.835Z,100657
2018-08-03T01:21:52.440Z,100655
2018-08-03T01:22:57.593Z,100657
2018-08-03T01:24:01.896Z,100660
2018-08-03T01:25:06.802Z,100666
2018-08-03T01:26:12.011Z,100669
2018-08-03T01:27:17.444Z,100660
2018-08-03T01:28:23.016Z,100663
2018-08-03T01:29:28.206Z,100663
2018-08-03T01:30:33.023Z,100660
2018-08-03T01:31:38.159Z,100650
2018-08-03T01:32:43.590Z,100657
2018-08-03T01:33:49.385Z,100660
2018-08-03T01:34:54.880Z,100657
2018-08-03T01:36:00.087Z,100655
2018-08-03T01:37:05.777Z,100660
2018-08-03T01:38:11.233Z,100666
2018-08-03T01:39:16.699Z,100660
2018-08-03T01:40:21.914Z,100655
2018-08-03T01:41:27.218Z,100655
2018-08-03T01:42:32.972Z,100660
2018-08-03T01:43:38.151Z,100669
2018-08-03T01:44:43.823Z,100657
2018-08-03T01:45:49.639Z,100657
2018-08-03T01:46:55.396Z,100666
2018-08-03T01:48:00.645Z,100653
2018-08-03T01:49:05.911Z,100663
2018-08-03T01:50:11.342Z,100669
2018-08-03T01:51:16.556Z,100666
2018-08-03T01:52:21.948Z,100660
2018-08-03T01:53:27.114Z,100657
2018-08-03T01:54:32.884Z,100663
2018-08-03T01:55:37.833Z,100650
2018-08-03T01:56:42.696Z,100655
2018-08-03T01:57:48.391Z,100657
2018-08-03T01:58:53.843Z,100663
2018-08-03T01:59:58.448Z,100660
2018-08-03T02:01:03.119Z,100655
2018-08-03T02:02:08.303Z,100657
2018-08-03T02:03:13.785Z,100666
2018-08-03T02:04:19.781Z,100660
2018-08-03T02:05:24.692Z,100675
2018-08-03T02:06:30.390Z,100669
2018-08-03T02:07:35.815Z,100666
2018-08-03T02:08:40.692Z,100666
2018-08-03T02:09:46.241Z,100675
2018-08-03T02:10:51.125Z,100660
2018-08-03T02:11:56.558Z,100660
2018-08-03T02:13:02.104Z,100663
2018-08-03T02:14:06.694Z,100666
2018-08-03T02:15:12.124Z,100663
2018-08-03T02:16:17.568Z,100666
2018-08-03T02:17:23.002Z,100666
2018-08-03T02:18:28.393Z,100666
2018-08-03T02:19:33.880Z,100657
2018-08-03T02:20:39.419Z,100663
2018-08-03T02:21:45.371Z,100663
2018-08-03T02:22:50.802Z,100663
2018-08-03T02:23:55.947Z,100655
2018-08-03T02:25:01.591Z,100657
2018-08-03T02:26:06.176Z,100650
2018-08-03T02:27:11.438Z,100660
2018-08-03T02:28:16.836Z,100657
2018-08-03T02:29:22.095Z,100666
2018-08-03T02:30:27.737Z,100657
2018-08-03T02:31:33.189Z,100655
2018-08-03T02:32:38.710Z,100663
2018-08-03T02:33:44.513Z,100660
2018-08-03T02:34:49.420Z,100660
2018-08-03T02:35:54.655Z,100660
2018-08-03T02:37:00.483Z,100663
2018-08-03T02:38:05.692Z,100657
2018-08-03T02:39:11.157Z,100663
2018-08-03T02:40:17.380Z,100663
2018-08-03T02:41:22.904Z,100672
2018-08-03T02:42:28.896Z,100653
2018-08-03T02:43:34.359Z,100655
2018-08-03T02:44:39.787Z,100660
2018-08-03T02:45:44.973Z,100653
2018-08-03T02:46:50.462Z,100657
2018-08-03T02:47:55.646Z,100657
2018-08-03T02:49:01.169Z,100657
2018-08-03T02:50:05.757Z,100660
2018-08-03T02:51:10.650Z,100663
2018-08-03T02:52:16.147Z,100660
2018-08-03T02:53:21.362Z,100663
2018-08-03T02:54:27.278Z,100660
2018-08-03T02:55:31.854Z,100663
2018-08-03T02:56:37.051Z,100663
2018-08-03T02:57:42.642Z,100663
2018-08-03T02:58:48.074Z,100663
2018-08-03T02:59:53.299Z,100672
2018-08-03T03:00:58.761Z,100669
2018-08-03T03:02:03.387Z,100666
2018-08-03T03:03:08.597Z,100684
2018-08-03T03:04:13.766Z,100681
2018-08-03T03:05:19.218Z,100669
2018-08-03T03:07:44.789Z,100669
2018-08-03T03:08:50.225Z,100666
2018-08-03T03:09:56.117Z,100666
2018-08-03T03:11:01.569Z,100684
2018-08-03T03:12:06.715Z,100660
2018-08-03T03:13:12.119Z,100666
2018-08-03T03:14:17.320Z,100672
2018-08-03T03:15:22.490Z,100678
2018-08-03T03:16:28.041Z,100672
2018-08-03T03:17:33.193Z,100669
2018-08-03T03:18:38.781Z,100675
2018-08-03T03:19:44.427Z,100663
2018-08-03T03:20:49.767Z,100666
2018-08-03T03:21:55.266Z,100678
2018-08-03T03:22:59.929Z,100666
2018-08-03T03:24:05.149Z,100669
2018-08-03T03:25:10.660Z,100678
2018-08-03T03:26:15.599Z,100669
2018-08-03T03:27:21.081Z,100678
2018-08-03T03:28:41.056Z,100678
2018-08-03T03:29:46.241Z,100666
2018-08-03T03:30:51.355Z,100678
2018-08-03T03:31:56.259Z,100669
2018-08-03T03:33:01.447Z,100675
2018-08-03T03:34:06.581Z,100672
2018-08-03T03:35:11.510Z,100672
2018-08-03T03:36:16.128Z,100666
2018-08-03T03:37:21.155Z,100675
2018-08-03T03:38:26.018Z,100675
2018-08-03T03:39:31.122Z,100681
2018-08-03T03:40:36.073Z,100669
2018-08-03T03:41:41.231Z,100675
2018-08-03T03:42:46.628Z,100669
2018-08-03T03:43:51.793Z,100675
2018-08-03T03:44:56.084Z,100672
2018-08-03T03:46:01.764Z,100672
2018-08-03T03:47:07.233Z,100672
2018-08-03T03:48:12.498Z,100678
2018-08-03T03:49:18.012Z,100678
2018-08-03T03:50:23.156Z,100684
2018-08-03T03:51:28.400Z,100675
2018-08-03T03:52:33.567Z,100684
2018-08-03T03:53:38.997Z,100684
2018-08-03T03:54:44.705Z,100675
2018-08-03T03:55:50.165Z,100678
2018-08-03T03:56:55.039Z,100675
2018-08-03T03:58:00.386Z,100681
2018-08-03T03:59:05.586Z,100687
2018-08-03T04:00:10.525Z,100678
2018-08-03T04:01:16.020Z,100687
2018-08-03T04:02:21.302Z,100690
2018-08-03T04:03:41.496Z,100695
2018-08-03T04:04:46.370Z,100690
2018-08-03T04:05:50.964Z,100675
2018-08-03T04:06:56.177Z,100681
2018-08-03T04:08:01.386Z,100681
2018-08-03T04:09:06.367Z,100684
2018-08-03T04:10:12.047Z,100675
2018-08-03T04:11:17.543Z,100687
2018-08-03T04:12:22.997Z,100681
2018-08-03T04:13:43.459Z,100690
2018-08-03T04:14:48.388Z,100693
2018-08-03T04:15:53.491Z,100684
2018-08-03T04:16:58.967Z,100695
2018-08-03T04:18:02.980Z,100681
2018-08-03T04:19:08.419Z,100684
2018-08-03T04:20:13.571Z,100690
2018-08-03T04:21:18.432Z,100690
2018-08-03T04:22:23.855Z,100690
2018-08-03T04:23:29.023Z,100690
2018-08-03T04:24:34.737Z,100687
2018-08-03T04:25:40.493Z,100687
2018-08-03T04:26:45.555Z,100684
2018-08-03T04:27:51.007Z,100684
2018-08-03T04:28:56.195Z,100684
2018-08-03T04:30:01.694Z,100687
2018-08-03T04:31:05.991Z,100690
2018-08-03T04:32:10.888Z,100684
2018-08-03T04:33:16.039Z,100684
2018-08-03T04:34:21.514Z,100684
2018-08-03T04:35:26.727Z,100681
2018-08-03T04:36:32.128Z,100681
2018-08-03T04:37:36.994Z,100684
2018-08-03T04:38:41.859Z,100678
2018-08-03T04:39:47.393Z,100678
2018-08-03T04:40:52.816Z,100678
2018-08-03T04:41:58.107Z,100678
2018-08-03T04:43:03.979Z,100672
2018-08-03T04:44:09.471Z,100678
2018-08-03T04:45:14.911Z,100684
2018-08-03T04:46:20.050Z,100681
2018-08-03T04:47:24.914Z,100687
2018-08-03T04:48:29.745Z,100684
2018-08-03T04:49:35.076Z,100684
2018-08-03T04:50:40.500Z,100672
2018-08-03T04:51:46.076Z,100687
2018-08-03T04:52:51.236Z,100684
2018-08-03T04:53:56.411Z,100675
2018-08-03T04:55:02.183Z,100681
2018-08-03T04:56:07.099Z,100684
2018-08-03T04:57:12.285Z,100684
2018-08-03T04:58:17.500Z,100687
2018-08-03T04:59:22.936Z,100684
2018-08-03T05:00:28.792Z,100684
2018-08-03T05:01:33.388Z,100684
2018-08-03T05:02:38.839Z,100687
2018-08-03T05:03:44.719Z,100701
2018-08-03T05:04:50.034Z,100693
2018-08-03T05:05:55.524Z,100698
2018-08-03T05:07:00.799Z,100690
2018-08-03T05:08:05.733Z,100684
2018-08-03T05:09:10.928Z,100690
2018-08-03T05:10:16.358Z,100698
2018-08-03T05:11:21.784Z,100690
2018-08-03T05:12:27.772Z,100684
2018-08-03T05:13:33.256Z,100701
2018-08-03T05:14:38.458Z,100687
2018-08-03T05:15:44.287Z,100696
2018-08-03T05:16:49.447Z,100687
2018-08-03T05:17:54.680Z,100693
2018-08-03T05:19:00.613Z,100698
2018-08-03T05:20:06.163Z,100693
2018-08-03T05:21:11.594Z,100699
2018-08-03T05:22:17.274Z,100693
2018-08-03T05:23:22.720Z,100696
2018-08-03T05:24:28.222Z,100704
2018-08-03T05:25:33.667Z,100699
2018-08-03T05:26:38.810Z,100696
2018-08-03T05:27:44.548Z,100699
2018-08-03T05:28:50.044Z,100696
2018-08-03T05:29:54.660Z,100696
2018-08-03T05:31:00.202Z,100693
2018-08-03T05:32:05.142Z,100693
2018-08-03T05:33:10.674Z,100704
2018-08-03T05:34:16.166Z,100704
2018-08-03T05:35:21.500Z,100693
2018-08-03T05:36:27.275Z,100702
2018-08-03T05:37:32.795Z,100690
2018-08-03T05:38:38.236Z,100696
2018-08-03T05:39:44.079Z,100696
2018-08-03T05:40:48.933Z,100704
2018-08-03T05:41:54.397Z,100687
2018-08-03T05:42:59.585Z,100690
2018-08-03T05:44:04.508Z,100690
2018-08-03T05:45:09.383Z,100690
2018-08-03T05:46:14.490Z,100684
2018-08-03T05:47:19.942Z,100693
2018-08-03T05:49:45.367Z,100687
2018-08-03T05:50:50.544Z,100690
2018-08-03T05:51:56.235Z,100690
2018-08-03T05:53:00.819Z,100696
2018-08-03T05:54:06.275Z,100684
2018-08-03T05:55:11.417Z,100690
2018-08-03T05:56:16.845Z,100687
2018-08-03T05:57:22.317Z,100687
2018-08-03T05:58:27.918Z,100684
2018-08-03T05:59:33.063Z,100684
2018-08-03T06:00:38.522Z,100693
2018-08-03T06:01:43.386Z,100690
2018-08-03T06:02:48.564Z,100699
2018-08-03T06:03:54.426Z,100713
2018-08-03T06:04:59.063Z,100699
2018-08-03T06:06:03.699Z,100693
2018-08-03T06:07:09.385Z,100690
2018-08-03T06:08:14.677Z,100696
2018-08-03T06:09:20.282Z,100687
2018-08-03T06:10:26.125Z,100696
2018-08-03T06:11:31.376Z,100699
2018-08-03T06:12:36.665Z,100699
2018-08-03T06:13:42.105Z,100687
2018-08-03T06:14:47.249Z,100684
2018-08-03T06:15:53.018Z,100687
2018-08-03T06:16:58.256Z,100696
2018-08-03T06:18:03.120Z,100690
2018-08-03T06:19:08.044Z,100687
2018-08-03T06:20:13.542Z,100693
2018-08-03T06:21:18.469Z,100678
2018-08-03T06:22:23.939Z,100702
2018-08-03T06:23:29.449Z,100690
2018-08-03T06:24:35.656Z,100699
2018-08-03T06:25:40.798Z,100696
2018-08-03T06:26:45.669Z,100696
2018-08-03T06:27:51.252Z,100696
2018-08-03T06:28:56.394Z,100699
2018-08-03T06:30:01.925Z,100696
2018-08-03T06:31:07.037Z,100693
2018-08-03T06:32:11.986Z,100699
2018-08-03T06:33:17.129Z,100690
2018-08-03T06:34:22.997Z,100693
2018-08-03T06:35:28.164Z,100684
2018-08-03T06:36:34.076Z,100687
2018-08-03T06:37:39.520Z,100693
2018-08-03T06:38:44.389Z,100678
2018-08-03T06:39:49.756Z,100687
2018-08-03T06:40:55.231Z,100690
2018-08-03T06:42:00.407Z,100687
2018-08-03T06:43:06.285Z,100696
2018-08-03T06:44:11.775Z,100684
2018-08-03T06:45:16.932Z,100687
2018-08-03T06:46:22.334Z,100693
2018-08-03T06:47:27.487Z,100681
2018-08-03T06:48:33.060Z,100679
2018-08-03T06:49:38.211Z,100679
2018-08-03T06:50:43.640Z,100690
2018-08-03T06:51:48.920Z,100684
2018-08-03T06:52:54.074Z,100690
2018-08-03T06:53:59.343Z,100684
2018-08-03T06:55:04.232Z,100693
2018-08-03T06:56:09.125Z,100690
2018-08-03T06:57:14.307Z,100687
2018-08-03T06:58:19.869Z,100687
2018-08-03T06:59:24.536Z,100693
2018-08-03T07:00:30.039Z,100690
2018-08-03T07:01:35.323Z,100684
2018-08-03T07:02:40.612Z,100693
2018-08-03T07:03:46.390Z,100699
2018-08-03T07:04:51.821Z,100684
2018-08-03T07:05:57.042Z,100685
2018-08-03T07:07:02.517Z,100696
2018-08-03T07:08:07.383Z,100687
2018-08-03T07:09:12.814Z,100699
2018-08-03T07:10:18.322Z,100693
2018-08-03T07:11:23.475Z,100699
2018-08-03T07:12:28.994Z,100693
2018-08-03T07:13:34.141Z,100687
2018-08-03T07:14:39.244Z,100696
2018-08-03T07:15:45.134Z,100699
2018-08-03T07:16:50.044Z,100705
2018-08-03T07:17:55.203Z,100690
2018-08-03T07:19:00.326Z,100699
2018-08-03T07:20:05.803Z,100702
2018-08-03T07:21:11.643Z,100696
2018-08-03T07:22:16.763Z,100699
2018-08-03T07:23:22.227Z,100693
2018-08-03T07:24:27.983Z,100699
2018-08-03T07:25:33.434Z,100711
2018-08-03T07:26:38.671Z,100702
2018-08-03T07:27:44.459Z,100693
2018-08-03T07:28:49.887Z,100696
2018-08-03T07:29:55.338Z,100705
2018-08-03T07:31:00.482Z,100699
2018-08-03T07:32:05.444Z,100705
2018-08-03T07:33:10.708Z,100696
2018-08-03T07:34:15.863Z,100702
2018-08-03T07:35:21.324Z,100693
2018-08-03T07:36:27.387Z,100699
2018-08-03T07:37:32.078Z,100696
2018-08-03T07:38:37.567Z,100708
2018-08-03T07:39:43.265Z,100684
2018-08-03T07:40:47.833Z,100696
2018-08-03T07:41:52.485Z,100696
2018-08-03T07:42:58.677Z,100693
2018-08-03T07:44:04.227Z,100693
2018-08-03T07:45:08.818Z,100699
2018-08-03T07:46:13.782Z,100693
2018-08-03T07:47:18.717Z,100690
2018-08-03T07:48:24.239Z,100696
2018-08-03T07:49:44.575Z,100699
2018-08-03T07:50:50.004Z,100693
2018-08-03T07:51:55.421Z,100696
2018-08-03T07:53:00.855Z,100687
2018-08-03T07:54:05.725Z,100699
2018-08-03T07:55:10.353Z,100684
2018-08-03T07:56:15.790Z,100684
2018-08-03T07:57:20.943Z,100684
2018-08-03T07:58:26.132Z,100690
2018-08-03T07:59:31.723Z,100684
2018-08-03T08:00:37.531Z,100687
2018-08-03T08:01:42.962Z,100684
2018-08-03T08:02:47.559Z,100690
2018-08-03T08:03:53.257Z,100698
2018-08-03T08:04:58.821Z,100693
2018-08-03T08:06:03.975Z,100687
2018-08-03T08:07:09.386Z,100692
2018-08-03T08:08:14.817Z,100687
2018-08-03T08:09:20.286Z,100687
2018-08-03T08:10:25.679Z,100690
2018-08-03T08:11:31.194Z,100690
2018-08-03T08:12:36.611Z,100687
2018-08-03T08:13:41.765Z,100690
2018-08-03T08:14:47.270Z,100678
2018-08-03T08:15:52.502Z,100678
2018-08-03T08:16:58.321Z,100687
2018-08-03T08:18:03.690Z,100681
2018-08-03T08:19:08.844Z,100678
2018-08-03T08:20:13.421Z,100684
2018-08-03T08:21:18.574Z,100678
2018-08-03T08:22:24.020Z,100675
2018-08-03T08:23:28.928Z,100678
2018-08-03T08:24:34.410Z,100684
2018-08-03T08:25:39.552Z,100675
2018-08-03T08:26:44.987Z,100669
2018-08-03T08:27:50.184Z,100675
2018-08-03T08:28:54.771Z,100684
2018-08-03T08:29:59.917Z,100692
2018-08-03T08:31:05.689Z,100678
2018-08-03T08:32:10.858Z,100672
2018-08-03T08:33:15.747Z,100680
2018-08-03T08:34:21.173Z,100680
2018-08-03T08:35:25.772Z,100663
2018-08-03T08:36:31.325Z,100677
2018-08-03T08:37:36.231Z,100669
2018-08-03T08:38:41.398Z,100663
2018-08-03T08:39:46.789Z,100672
2018-08-03T08:40:51.972Z,100663
2018-08-03T08:41:57.446Z,100672
2018-08-03T08:43:02.852Z,100663
2018-08-03T08:44:07.484Z,100660
2018-08-03T08:45:12.386Z,100669
2018-08-03T08:46:17.498Z,100660
2018-08-03T08:47:22.677Z,100660
2018-08-03T08:48:27.790Z,100666
2018-08-03T08:49:32.980Z,100666
2018-08-03T08:50:37.841Z,100668
2018-08-03T08:51:43.428Z,100668
2018-08-03T08:52:48.322Z,100663
2018-08-03T08:53:53.207Z,100663
2018-08-03T08:54:58.708Z,100660
2018-08-03T08:56:03.581Z,100660
2018-08-03T08:57:08.175Z,100660
2018-08-03T08:58:13.592Z,100665
2018-08-03T08:59:18.791Z,100660
2018-08-03T09:00:23.955Z,100660
2018-08-03T09:01:44.041Z,100662
2018-08-03T09:02:49.243Z,100662
2018-08-03T09:03:54.924Z,100662
2018-08-03T09:04:59.887Z,100668
2018-08-03T09:06:04.598Z,100665
2018-08-03T09:07:10.007Z,100657
2018-08-03T09:08:14.691Z,100662
2018-08-03T09:09:19.847Z,100657
2018-08-03T09:10:25.523Z,100659
2018-08-03T09:11:30.726Z,100659
2018-08-03T09:12:36.271Z,100656
2018-08-03T09:13:41.525Z,100652
2018-08-03T09:14:46.675Z,100656
2018-08-03T09:15:52.074Z,100659
2018-08-03T09:16:57.223Z,100662
2018-08-03T09:18:02.100Z,100652
2018-08-03T09:19:06.931Z,100654
2018-08-03T09:20:12.360Z,100656
2018-08-03T09:21:17.588Z,100662
2018-08-03T09:22:22.996Z,100654
2018-08-03T09:23:28.216Z,100652
2018-08-03T09:24:33.539Z,100651
2018-08-03T09:25:39.157Z,100649
2018-08-03T09:26:44.613Z,100640
2018-08-03T09:27:50.065Z,100637
2018-08-03T09:28:55.339Z,100640
2018-08-03T09:30:00.571Z,100646
2018-08-03T09:31:06.654Z,100640
2018-08-03T09:32:11.806Z,100631
2018-08-03T09:33:16.974Z,100646
2018-08-03T09:34:22.404Z,100643
2018-08-03T09:35:26.989Z,100637
2018-08-03T09:36:32.788Z,100640
2018-08-03T09:37:38.319Z,100634
2018-08-03T09:38:43.781Z,100640
2018-08-03T09:39:48.947Z,100637
2018-08-03T09:40:53.856Z,100631
2018-08-03T09:41:58.711Z,100634
2018-08-03T09:43:04.588Z,100631
2018-08-03T09:44:09.545Z,100642
2018-08-03T09:45:14.696Z,100640
2018-08-03T09:46:19.896Z,100625
2018-08-03T09:47:24.774Z,100634
2018-08-03T09:48:29.849Z,100628
2018-08-03T09:49:35.048Z,100622
2018-08-03T09:50:40.219Z,100631
2018-08-03T09:51:45.546Z,100628
2018-08-03T09:52:50.690Z,100622
2018-08-03T09:53:56.377Z,100628
2018-08-03T09:55:01.212Z,100622
2018-08-03T09:56:05.518Z,100628
2018-08-03T09:57:09.920Z,100619
2018-08-03T09:58:15.421Z,100616
2018-08-03T09:59:20.858Z,100616
2018-08-03T10:00:26.803Z,100613
2018-08-03T10:01:31.994Z,100619
2018-08-03T10:02:37.230Z,100625
2018-08-03T10:03:42.731Z,100616
2018-08-03T10:04:47.611Z,100616
2018-08-03T10:05:52.476Z,100625
2018-08-03T10:06:57.908Z,100616
2018-08-03T10:08:03.147Z,100616
2018-08-03T10:09:08.011Z,100619
2018-08-03T10:10:13.414Z,100601
2018-08-03T10:11:18.294Z,100616
2018-08-03T10:12:23.155Z,100601
2018-08-03T10:13:28.920Z,100622
2018-08-03T10:14:33.835Z,100610
2018-08-03T10:15:39.700Z,100607
2018-08-03T10:16:45.547Z,100610
2018-08-03T10:17:50.172Z,100604
2018-08-03T10:18:55.992Z,100610
2018-08-03T10:20:01.181Z,100604
2018-08-03T10:21:05.581Z,100604
2018-08-03T10:22:11.135Z,100610
2018-08-03T10:23:16.096Z,100601
2018-08-03T10:24:21.304Z,100604
2018-08-03T10:25:41.738Z,100604
2018-08-03T10:26:46.920Z,100601
2018-08-03T10:27:52.047Z,100607
2018-08-03T10:28:56.921Z,100598
2018-08-03T10:30:02.109Z,100595
2018-08-03T10:31:06.979Z,100604
2018-08-03T10:32:12.499Z,100598
2018-08-03T10:33:17.408Z,100598
2018-08-03T10:34:23.142Z,100592
2018-08-03T10:35:28.212Z,100595
2018-08-03T10:36:33.582Z,100590
2018-08-03T10:37:39.105Z,100587
2018-08-03T10:38:44.272Z,100595
2018-08-03T10:39:49.248Z,100590
2018-08-03T10:40:54.164Z,100573
2018-08-03T10:41:59.364Z,100579
2018-08-03T10:43:05.314Z,100579
2018-08-03T10:44:11.029Z,100592
2018-08-03T10:45:16.233Z,100573
2018-08-03T10:46:22.031Z,100579
2018-08-03T10:47:26.903Z,100579
2018-08-03T10:48:32.764Z,100589
2018-08-03T10:49:38.017Z,100589
2018-08-03T10:50:43.450Z,100576
2018-08-03T10:51:48.904Z,100564
2018-08-03T10:52:54.411Z,100570
2018-08-03T10:53:59.278Z,100570
2018-08-03T10:55:04.153Z,100570
2018-08-03T10:56:09.359Z,100567
2018-08-03T10:57:14.298Z,100564
2018-08-03T10:58:20.084Z,100567
2018-08-03T10:59:25.986Z,100573
2018-08-03T11:00:31.578Z,100573
2018-08-03T11:01:36.871Z,100570
2018-08-03T11:02:42.553Z,100561
2018-08-03T11:03:47.517Z,100570
2018-08-03T11:04:52.670Z,100567
2018-08-03T11:05:57.893Z,100558
2018-08-03T11:07:02.165Z,100561
2018-08-03T11:08:07.038Z,100558
2018-08-03T11:09:12.188Z,100564
2018-08-03T11:10:17.305Z,100549
2018-08-03T11:11:22.450Z,100549
2018-08-03T11:12:28.289Z,100549
2018-08-03T11:13:33.605Z,100558
2018-08-03T11:14:39.346Z,100555
2018-08-03T11:15:45.025Z,100546
2018-08-03T11:16:50.177Z,100564
2018-08-03T11:17:55.543Z,100546
2018-08-03T11:19:00.948Z,100547
2018-08-03T11:20:05.847Z,100549
2018-08-03T11:21:11.347Z,100555
2018-08-03T11:22:16.460Z,100552
2018-08-03T11:23:21.961Z,100544
2018-08-03T11:24:27.831Z,100541
2018-08-03T11:25:32.998Z,100547
2018-08-03T11:26:38.158Z,100544
2018-08-03T11:27:43.837Z,100549
2018-08-03T11:28:49.341Z,100546
2018-08-03T11:29:54.784Z,100544
2018-08-03T11:31:00.239Z,100541
2018-08-03T11:32:05.408Z,100555
2018-08-03T11:33:10.640Z,100538
2018-08-03T11:34:15.834Z,100538
2018-08-03T11:35:21.244Z,100538
2018-08-03T11:36:26.799Z,100541
2018-08-03T11:37:31.694Z,100541
2018-08-03T11:38:36.846Z,100526
2018-08-03T11:39:42.652Z,100541
2018-08-03T11:40:47.889Z,100529
2018-08-03T11:41:53.197Z,100546
2018-08-03T11:42:58.925Z,100532
2018-08-03T11:44:04.335Z,100546
2018-08-03T11:45:09.209Z,100538
2018-08-03T11:46:15.063Z,100541
2018-08-03T11:47:20.309Z,100541
2018-08-03T11:48:40.470Z,100529
2018-08-03T11:49:46.059Z,100532
2018-08-03T11:50:51.572Z,100538
2018-08-03T11:51:56.974Z,100535
2018-08-03T11:53:01.935Z,100535
2018-08-03T11:54:07.273Z,100538
2018-08-03T11:55:13.344Z,100532
2018-08-03T11:56:18.492Z,100526
2018-08-03T11:57:23.697Z,100526
2018-08-03T11:58:43.857Z,100535
2018-08-03T11:59:49.288Z,100532
2018-08-03T12:00:54.932Z,100532
2018-08-03T12:02:00.527Z,100532
2018-08-03T12:03:05.631Z,100526
2018-08-03T12:04:11.157Z,100529
2018-08-03T12:05:16.794Z,100532
2018-08-03T12:06:21.941Z,100526
2018-08-03T12:07:27.619Z,100532
2018-08-03T12:08:32.579Z,100520
2018-08-03T12:09:38.412Z,100529
2018-08-03T12:10:43.548Z,100511
2018-08-03T12:11:48.767Z,100511
2018-08-03T12:12:54.194Z,100511
2018-08-03T12:13:59.742Z,100508
2018-08-03T12:15:04.648Z,100503
2018-08-03T12:16:10.437Z,100508
2018-08-03T12:17:15.585Z,100511
2018-08-03T12:18:19.895Z,100502
2018-08-03T12:19:25.628Z,100508
2018-08-03T12:20:30.032Z,100508
2018-08-03T12:21:36.140Z,100505
2018-08-03T12:22:41.598Z,100497
2018-08-03T12:23:47.095Z,100500
2018-08-03T12:24:53.677Z,100508
2018-08-03T12:25:58.818Z,100502
2018-08-03T12:27:03.974Z,100508
2018-08-03T12:28:09.231Z,100502
2018-08-03T12:29:14.371Z,100502
2018-08-03T12:30:19.798Z,100500
2018-08-03T12:31:25.654Z,100502
2018-08-03T12:32:30.857Z,100505
2018-08-03T12:33:36.540Z,100491
2018-08-03T12:34:41.681Z,100502
2018-08-03T12:35:46.846Z,100491
2018-08-03T12:36:52.273Z,100500
2018-08-03T12:37:57.430Z,100488
2018-08-03T12:39:02.342Z,100494
2018-08-03T12:40:07.660Z,100497
2018-08-03T12:41:12.258Z,100488
2018-08-03T12:42:17.415Z,100491
2018-08-03T12:43:23.104Z,100488
2018-08-03T12:44:28.536Z,100485
2018-08-03T12:45:35.542Z,100476
2018-08-03T12:46:40.682Z,100479
2018-08-03T12:47:45.834Z,100485
2018-08-03T12:48:50.940Z,100488
2018-08-03T12:49:56.125Z,100488
2018-08-03T12:51:01.119Z,100479
2018-08-03T12:52:06.829Z,100485
2018-08-03T12:53:11.794Z,100482
2018-08-03T12:54:16.942Z,100476
2018-08-03T12:55:22.376Z,100482
2018-08-03T12:56:27.294Z,100476
2018-08-03T12:57:32.672Z,100474
2018-08-03T12:58:38.105Z,100479
2018-08-03T12:59:43.937Z,100463
2018-08-03T13:00:49.704Z,100471
2018-08-03T13:01:55.135Z,100468
2018-08-03T13:03:00.288Z,100474
2018-08-03T13:04:05.445Z,100463
2018-08-03T13:05:10.859Z,100463
2018-08-03T13:06:15.509Z,100463
2018-08-03T13:07:20.653Z,100465
2018-08-03T13:08:27.703Z,100451
2018-08-03T13:09:34.071Z,100457
2018-08-03T13:10:38.959Z,100460
2018-08-03T13:11:43.839Z,100457
2018-08-03T13:12:49.661Z,100460
2018-08-03T13:13:54.832Z,100454
2018-08-03T13:14:59.063Z,100457
2018-08-03T13:16:05.347Z,100454
2018-08-03T13:17:09.927Z,100451
2018-08-03T13:18:14.795Z,100457
2018-08-03T13:19:20.197Z,100445
2018-08-03T13:20:25.630Z,100460
2018-08-03T13:21:31.313Z,100445
2018-08-03T13:22:36.483Z,100430
2018-08-03T13:23:41.973Z,100442
2018-08-03T13:24:47.204Z,100439
2018-08-03T13:25:52.371Z,100445
2018-08-03T13:26:57.259Z,100436
2018-08-03T13:28:02.661Z,100445
2018-08-03T13:29:08.008Z,100442
2018-08-03T13:30:13.253Z,100439
2018-08-03T13:31:18.614Z,100433
2018-08-03T13:32:23.703Z,100439
2018-08-03T13:33:29.242Z,100445
2018-08-03T13:34:34.749Z,100439
2018-08-03T13:35:40.190Z,100425
2018-08-03T13:36:45.914Z,100434
2018-08-03T13:37:50.888Z,100431
2018-08-03T13:38:56.448Z,100436
2018-08-03T13:40:02.118Z,100425